Time;durP1;ratioP1;P1;durP2;ratioP2;P2;SDS_P1;SDS_P2;PMS_P1;PMS_P2;Temp;Humidity;BMP_temperature;BMP_pressure;BME280_temperature;BME280_humidity;BME280_pressure;Samples;Min_cycle;Max_cycle;Signal;HPM_P1;HPM_P2
2023/05/13 00:00:40;;;;;;;;;;;;;;;;;;5035747;28;908;-69
2023/05/13 00:03:05;;;;;;;;;;;;;;;;;;5067050;28;1352;-69
2023/05/13 00:05:30;;;;;;;;;;;;;;;;;;5051028;28;790;-69
2023/05/13 00:07:56;;;;;;;;;;;;;;;;;;5051152;28;893;-68
2023/05/13 00:10:21;;;;;;;;;;;;;;;;;;5050636;28;1218;-69
2023/05/13 00:12:46;;;;;;;;;;;;;;;;;;5035712;28;871;-68
2023/05/13 00:15:12;;;;;;;;;;;;;;;;;;5035871;28;861;-69
2023/05/13 00:17:37;;;;;;;;;;;;;;;;;;5035854;28;1972;-69
2023/05/13 00:20:03;;;;;;;;;;;;;;;;;;5050925;28;908;-69
2023/05/13 00:22:29;;;;;;;;;;;;;;;;;;5067848;28;1306;-69
2023/05/13 00:24:54;;;;;;;;;;;;;;;;;;5067570;28;1349;-69
2023/05/13 00:27:19;;;;;;;;;;;;;;;;;;5035834;28;805;-69
2023/05/13 00:29:45;;;;;;;;;;;;;;;;;;5035249;28;893;-68
2023/05/13 00:32:10;;;;;;;;;;;;;;;;;;5050418;28;1379;-69
2023/05/13 00:34:36;;;;;;;;;;;;;;;;;;5066786;28;1179;-69
2023/05/13 00:37:01;;;;;;;;;;;;;;;;;;5050098;28;1969;-69
2023/05/13 00:39:27;;;;;;;;;;;;;;;;;;5066980;28;1171;-69
2023/05/13 00:41:52;;;;;;;;;;;;;;;;;;5035107;28;845;-69
2023/05/13 00:44:18;;;;;;;;;;;;;;;;;;5035242;28;979;-69
2023/05/13 00:46:43;;;;;;;;;;;;;;;;;;5050876;28;999;-68
2023/05/13 00:49:09;;;;;;;;;;;;;;;;;;5050002;28;1289;-69
2023/05/13 00:51:35;;;;;;;;;;;;;;;;;;5034693;28;1003;-68
2023/05/13 00:54:00;;;;;;;;;;;;;;;;;;5035101;28;900;-69
2023/05/13 00:56:26;;;;;;;;;;;;;;;;;;5034310;28;963;-68
2023/05/13 00:58:51;;;;;;;;;;;;;;;;;;5034789;28;1959;-69
2023/05/13 01:01:22;;;;;;;;;;;;;;;;;;5034615;28;999;-68
2023/05/13 01:04:06;;;;;;;;;;;;;;;;;;5035014;28;1015;-70
2023/05/13 01:06:44;;;;;;;;;;;;;;;;;;5066541;28;1449;-69
2023/05/13 01:09:10;;;;;;;;;;;;;;;;;;5035072;28;944;-70
2023/05/13 01:11:37;;;;;;;;;;;;;;;;;;5034562;28;846;-69
2023/05/13 01:14:08;;;;;;;;;;;;;;;;;;5034086;28;1007;-70
2023/05/13 01:16:39;;;;;;;;;;;;;;;;;;5066356;28;1201;-70
2023/05/13 01:19:22;;;;;;;;;;;;;;;;;;5049586;28;1905;-70
2023/05/13 01:21:50;;;;;;;;;;;;;;;;;;5049543;28;1283;-69
2023/05/13 01:24:16;;;;;;;;;;;;;;;;;;5066313;28;1178;-69
2023/05/13 01:26:41;;;;;;;;;;;;;;;;;;5049405;28;1007;-69
2023/05/13 01:29:06;;;;;;;;;;;;;;;;;;5049371;28;932;-69
2023/05/13 01:31:32;;;;;;;;;;;;;;;;;;5049266;28;1212;-69
2023/05/13 01:33:57;;;;;;;;;;;;;;;;;;5034256;28;849;-70
2023/05/13 01:36:23;;;;;;;;;;;;;;;;;;5033965;28;967;-69
2023/05/13 01:38:49;;;;;;;;;;;;;;;;;;5049165;28;1906;-70
2023/05/13 01:41:14;;;;;;;;;;;;;;;;;;5066576;28;1078;-69
2023/05/13 01:43:40;;;;;;;;;;;;;;;;;;5049520;28;1407;-69
2023/05/13 01:46:10;;;;;;;;;;;;;;;;;;5055050;28;1275;-70
2023/05/13 01:48:35;;;;;;;;;;;;;;;;;;5034510;28;1319;-68
2023/05/13 01:51:01;;;;;;;;;;;;;;;;;;5054609;28;1204;-69
2023/05/13 01:53:26;;;;;;;;;;;;;;;;;;5060331;28;1192;-70
2023/05/13 01:55:51;;;;;;;;;;;;;;;;;;5035451;28;1156;-70
2023/05/13 01:58:16;;;;;;;;;;;;;;;;;;5048966;28;1985;-70
2023/05/13 02:00:42;;;;;;;;;;;;;;;;;;5033882;28;898;-69
2023/05/13 02:03:07;;;;;;;;;;;;;;;;;;5048825;28;1314;-70
2023/05/13 02:05:32;;;;;;;;;;;;;;;;;;5065299;28;1188;-70
2023/05/13 02:07:57;;;;;;;;;;;;;;;;;;5033552;28;924;-70
2023/05/13 02:10:23;;;;;;;;;;;;;;;;;;5048120;28;893;-69
2023/05/13 02:12:48;;;;;;;;;;;;;;;;;;5048734;28;912;-70
2023/05/13 02:15:13;;;;;;;;;;;;;;;;;;5033480;28;952;-70
2023/05/13 02:17:38;;;;;;;;;;;;;;;;;;5065883;28;1946;-70
2023/05/13 02:20:04;;;;;;;;;;;;;;;;;;5049282;28;1225;-69
2023/05/13 02:22:29;;;;;;;;;;;;;;;;;;5034168;28;1295;-69
2023/05/13 02:24:55;;;;;;;;;;;;;;;;;;5049340;28;896;-69
2023/05/13 02:27:22;;;;;;;;;;;;;;;;;;5049531;28;908;-68
2023/05/13 02:29:47;;;;;;;;;;;;;;;;;;5049820;28;876;-69
2023/05/13 02:32:12;;;;;;;;;;;;;;;;;;5066320;28;1328;-68
2023/05/13 02:34:38;;;;;;;;;;;;;;;;;;5034042;28;944;-69
2023/05/13 02:37:04;;;;;;;;;;;;;;;;;;5035332;28;1983;-69
2023/05/13 02:39:29;;;;;;;;;;;;;;;;;;5034065;28;1004;-69
2023/05/13 02:41:55;;;;;;;;;;;;;;;;;;5035613;28;1014;-69
2023/05/13 02:44:20;;;;;;;;;;;;;;;;;;5034939;28;912;-69
2023/05/13 02:46:45;;;;;;;;;;;;;;;;;;5050578;28;987;-71
2023/05/13 02:49:11;;;;;;;;;;;;;;;;;;5050777;28;1205;-68
2023/05/13 02:51:36;;;;;;;;;;;;;;;;;;5050450;28;825;-68
2023/05/13 02:54:01;;;;;;;;;;;;;;;;;;5049585;28;1210;-69
2023/05/13 02:56:27;;;;;;;;;;;;;;;;;;5050025;28;908;-69
2023/05/13 02:58:52;;;;;;;;;;;;;;;;;;5066577;28;1957;-69
2023/05/13 03:01:17;;;;;;;;;;;;;;;;;;5033504;28;817;-69
2023/05/13 03:03:43;;;;;;;;;;;;;;;;;;5032312;28;991;-70
2023/05/13 03:06:08;;;;;;;;;;;;;;;;;;5047767;28;861;-69
2023/05/13 03:08:33;;;;;;;;;;;;;;;;;;5045675;28;1346;-69
2023/05/13 03:10:59;;;;;;;;;;;;;;;;;;5046769;28;928;-70
2023/05/13 03:13:25;;;;;;;;;;;;;;;;;;5064803;28;1190;-70
2023/05/13 03:15:50;;;;;;;;;;;;;;;;;;5048437;28;1370;-70
2023/05/13 03:18:15;;;;;;;;;;;;;;;;;;5048220;28;1898;-72
2023/05/13 03:20:41;;;;;;;;;;;;;;;;;;5049909;28;1240;-70
2023/05/13 03:23:07;;;;;;;;;;;;;;;;;;5051480;28;1519;-69
2023/05/13 03:25:32;;;;;;;;;;;;;;;;;;5068566;28;1375;-69
2023/05/13 03:27:58;;;;;;;;;;;;;;;;;;5052089;28;1354;-69
2023/05/13 03:30:23;;;;;;;;;;;;;;;;;;5051617;28;809;-69
2023/05/13 03:32:48;;;;;;;;;;;;;;;;;;5051303;28;860;-70
2023/05/13 03:35:14;;;;;;;;;;;;;;;;;;5036327;28;979;-68
2023/05/13 03:37:39;;;;;;;;;;;;;;;;;;5036052;28;1917;-68
2023/05/13 03:40:05;;;;;;;;;;;;;;;;;;5035736;28;886;-68
2023/05/13 03:42:30;;;;;;;;;;;;;;;;;;5051000;28;1214;-69
2023/05/13 03:44:59;;;;;;;;;;;;;;;;;;5051538;28;1186;-69
2023/05/13 03:47:24;;;;;;;;;;;;;;;;;;5050677;28;833;-69
2023/05/13 03:49:49;;;;;;;;;;;;;;;;;;5035695;28;841;-69
2023/05/13 03:52:15;;;;;;;;;;;;;;;;;;5035676;28;845;-69
2023/05/13 03:54:41;;;;;;;;;;;;;;;;;;5050472;28;810;-69
2023/05/13 03:57:06;;;;;;;;;;;;;;;;;;5050429;28;1967;-68
2023/05/13 03:59:31;;;;;;;;;;;;;;;;;;5067325;28;1218;-69
2023/05/13 04:01:57;;;;;;;;;;;;;;;;;;5035369;28;885;-68
2023/05/13 04:04:22;;;;;;;;;;;;;;;;;;5035096;28;908;-68
2023/05/13 04:06:47;;;;;;;;;;;;;;;;;;5050390;28;1206;-68
2023/05/13 04:09:12;;;;;;;;;;;;;;;;;;5050823;28;915;-68
2023/05/13 04:11:38;;;;;;;;;;;;;;;;;;5035505;28;939;-68
2023/05/13 04:14:03;;;;;;;;;;;;;;;;;;5050793;28;830;-68
2023/05/13 04:16:28;;;;;;;;;;;;;;;;;;5050510;28;940;-68
2023/05/13 04:18:54;;;;;;;;;;;;;;;;;;5035171;28;1906;-68
2023/05/13 04:21:19;;;;;;;;;;;;;;;;;;5050184;28;1213;-69
2023/05/13 04:23:44;;;;;;;;;;;;;;;;;;5035588;28;813;-69
2023/05/13 04:26:10;;;;;;;;;;;;;;;;;;5050590;28;855;-69
2023/05/13 04:28:35;;;;;;;;;;;;;;;;;;5034699;28;920;-69
2023/05/13 04:31:01;;;;;;;;;;;;;;;;;;5050116;28;876;-69
2023/05/13 04:33:27;;;;;;;;;;;;;;;;;;5034240;28;865;-69
2023/05/13 04:35:52;;;;;;;;;;;;;;;;;;5034664;28;904;-69
2023/05/13 04:38:17;;;;;;;;;;;;;;;;;;5050341;28;1970;-69
2023/05/13 04:40:43;;;;;;;;;;;;;;;;;;5049882;28;892;-69
2023/05/13 04:43:09;;;;;;;;;;;;;;;;;;5050221;28;832;-69
2023/05/13 04:45:35;;;;;;;;;;;;;;;;;;5066598;28;1091;-69
2023/05/13 04:48:01;;;;;;;;;;;;;;;;;;5034794;28;873;-69
2023/05/13 04:50:26;;;;;;;;;;;;;;;;;;5034371;28;1008;-69
2023/05/13 04:52:53;;;;;;;;;;;;;;;;;;5050143;28;837;-69
2023/05/13 04:55:18;;;;;;;;;;;;;;;;;;5066905;28;1301;-69
2023/05/13 04:57:43;;;;;;;;;;;;;;;;;;5035489;28;1890;-69
2023/05/13 05:00:11;;;;;;;;;;;;;;;;;;5066231;28;1313;-69
2023/05/13 05:02:36;;;;;;;;;;;;;;;;;;5034149;28;939;-69
2023/05/13 05:05:01;;;;;;;;;;;;;;;;;;5034274;28;853;-69
2023/05/13 05:07:27;;;;;;;;;;;;;;;;;;5049813;28;837;-69
2023/05/13 05:09:55;;;;;;;;;;;;;;;;;;5066387;28;1321;-69
2023/05/13 05:12:21;;;;;;;;;;;;;;;;;;5052132;28;923;-68
2023/05/13 05:14:46;;;;;;;;;;;;;;;;;;5074442;28;1509;-68
2023/05/13 05:17:11;;;;;;;;;;;;;;;;;;5057308;28;1957;-69
2023/05/13 05:19:36;;;;;;;;;;;;;;;;;;5052268;28;1199;-69
2023/05/13 05:22:02;;;;;;;;;;;;;;;;;;5047792;28;1200;-69
2023/05/13 05:24:27;;;;;;;;;;;;;;;;;;5053290;28;1300;-68
2023/05/13 05:26:52;;;;;;;;;;;;;;;;;;5054372;28;896;-68
2023/05/13 05:29:18;;;;;;;;;;;;;;;;;;5054936;28;853;-68
2023/05/13 05:31:43;;;;;;;;;;;;;;;;;;5054619;28;916;-69
2023/05/13 05:34:08;;;;;;;;;;;;;;;;;;5055130;28;899;-68
2023/05/13 05:36:34;;;;;;;;;;;;;;;;;;5069405;28;948;-68
2023/05/13 05:38:59;;;;;;;;;;;;;;;;;;5069423;28;1977;-68
2023/05/13 05:41:24;;;;;;;;;;;;;;;;;;5069263;28;1198;-68
2023/05/13 05:43:50;;;;;;;;;;;;;;;;;;5068086;28;1210;-68
2023/05/13 05:46:15;;;;;;;;;;;;;;;;;;5066490;28;1347;-69
2023/05/13 05:48:41;;;;;;;;;;;;;;;;;;5064266;28;1202;-68
2023/05/13 05:51:06;;;;;;;;;;;;;;;;;;5033854;28;920;-68
2023/05/13 05:53:32;;;;;;;;;;;;;;;;;;5049008;28;928;-68
2023/05/13 05:55:57;;;;;;;;;;;;;;;;;;5065362;28;1215;-68
2023/05/13 05:58:25;;;;;;;;;;;;;;;;;;5065194;28;1960;-68
2023/05/13 06:00:51;;;;;;;;;;;;;;;;;;5033552;28;841;-69
2023/05/13 06:03:16;;;;;;;;;;;;;;;;;;5048532;28;1423;-69
2023/05/13 06:05:41;;;;;;;;;;;;;;;;;;5048288;28;1412;-68
2023/05/13 06:08:07;;;;;;;;;;;;;;;;;;5033542;28;892;-68
2023/05/13 06:10:32;;;;;;;;;;;;;;;;;;5064704;28;1190;-68
2023/05/13 06:12:57;;;;;;;;;;;;;;;;;;5064641;28;1198;-69
2023/05/13 06:15:22;;;;;;;;;;;;;;;;;;5032399;28;920;-69
2023/05/13 06:17:48;;;;;;;;;;;;;;;;;;5047750;28;1898;-69
2023/05/13 06:20:13;;;;;;;;;;;;;;;;;;5033031;28;868;-69
2023/05/13 06:22:39;;;;;;;;;;;;;;;;;;5031959;28;1169;-69
2023/05/13 06:25:04;;;;;;;;;;;;;;;;;;5064556;28;1321;-69
2023/05/13 06:27:30;;;;;;;;;;;;;;;;;;5032269;28;943;-69
2023/05/13 06:29:55;;;;;;;;;;;;;;;;;;5048082;28;836;-68
2023/05/13 06:32:20;;;;;;;;;;;;;;;;;;5032270;28;900;-68
2023/05/13 06:34:46;;;;;;;;;;;;;;;;;;5031966;28;857;-68
2023/05/13 06:37:12;;;;;;;;;;;;;;;;;;5048101;28;1969;-68
2023/05/13 06:39:37;;;;;;;;;;;;;;;;;;5047840;28;1209;-68
2023/05/13 06:42:03;;;;;;;;;;;;;;;;;;5032255;28;963;-68
2023/05/13 06:44:28;;;;;;;;;;;;;;;;;;5064271;28;1340;-68
2023/05/13 06:46:53;;;;;;;;;;;;;;;;;;5030803;28;1258;-69
2023/05/13 06:49:19;;;;;;;;;;;;;;;;;;5047589;28;864;-69
2023/05/13 06:51:44;;;;;;;;;;;;;;;;;;5070276;28;1215;-68
2023/05/13 06:54:09;;;;;;;;;;;;;;;;;;5049457;28;1235;-68
2023/05/13 06:56:35;;;;;;;;;;;;;;;;;;5061894;28;1185;-68
2023/05/13 06:59:00;;;;;;;;;;;;;;;;;;5071632;28;1953;-69
2023/05/13 07:01:26;;;;;;;;;;;;;;;;;;5055774;28;1176;-69
2023/05/13 07:03:51;;;;;;;;;;;;;;;;;;5053510;28;1168;-69
2023/05/13 07:06:16;;;;;;;;;;;;;;;;;;5069656;28;1215;-69
2023/05/13 07:08:41;;;;;;;;;;;;;;;;;;5056548;28;931;-69
2023/05/13 07:11:07;;;;;;;;;;;;;;;;;;5072114;28;1145;-69
2023/05/13 07:13:33;;;;;;;;;;;;;;;;;;5056463;28;983;-70
2023/05/13 07:15:59;;;;;;;;;;;;;;;;;;5071371;28;1245;-70
2023/05/13 07:18:24;;;;;;;;;;;;;;;;;;5055803;28;1910;-70
2023/05/13 07:20:50;;;;;;;;;;;;;;;;;;5055655;28;774;-69
2023/05/13 07:23:15;;;;;;;;;;;;;;;;;;5088181;28;1214;-70
2023/05/13 07:25:41;;;;;;;;;;;;;;;;;;5055852;28;876;-70
2023/05/13 07:28:07;;;;;;;;;;;;;;;;;;5055953;28;928;-70
2023/05/13 07:30:32;;;;;;;;;;;;;;;;;;5054116;28;1190;-70
2023/05/13 07:32:57;;;;;;;;;;;;;;;;;;5055681;28;947;-70
2023/05/13 07:35:23;;;;;;;;;;;;;;;;;;5055675;28;962;-69
2023/05/13 07:37:48;;;;;;;;;;;;;;;;;;5055314;28;2004;-70
2023/05/13 07:40:13;;;;;;;;;;;;;;;;;;5055033;28;1204;-69
2023/05/13 07:42:39;;;;;;;;;;;;;;;;;;5070011;28;1231;-70
2023/05/13 07:45:05;;;;;;;;;;;;;;;;;;5070103;28;1209;-69
2023/05/13 07:47:30;;;;;;;;;;;;;;;;;;5087412;28;1360;-69
2023/05/13 07:49:56;;;;;;;;;;;;;;;;;;5070203;28;1265;-69
2023/05/13 07:52:22;;;;;;;;;;;;;;;;;;5055452;28;806;-68
2023/05/13 07:54:47;;;;;;;;;;;;;;;;;;5086990;28;1312;-70
2023/05/13 07:57:12;;;;;;;;;;;;;;;;;;5087316;28;1965;-70
2023/05/13 07:59:38;;;;;;;;;;;;;;;;;;5087336;28;1146;-69
2023/05/13 08:02:03;;;;;;;;;;;;;;;;;;5054356;28;900;-70
2023/05/13 08:04:28;;;;;;;;;;;;;;;;;;5070022;28;1213;-69
2023/05/13 08:06:53;;;;;;;;;;;;;;;;;;5069118;28;1186;-69
2023/05/13 08:09:19;;;;;;;;;;;;;;;;;;5070383;28;897;-70
2023/05/13 08:11:44;;;;;;;;;;;;;;;;;;5054487;28;1067;-70
2023/05/13 08:14:09;;;;;;;;;;;;;;;;;;5055067;28;904;-69
2023/05/13 08:16:35;;;;;;;;;;;;;;;;;;5054382;28;892;-70
2023/05/13 08:19:00;;;;;;;;;;;;;;;;;;5054229;28;1906;-70
2023/05/13 08:21:25;;;;;;;;;;;;;;;;;;5086928;28;1262;-69
2023/05/13 08:23:51;;;;;;;;;;;;;;;;;;5054485;28;836;-69
2023/05/13 08:26:16;;;;;;;;;;;;;;;;;;5070257;28;1102;-69
2023/05/13 08:28:41;;;;;;;;;;;;;;;;;;5069066;28;1339;-69
2023/05/13 08:31:07;;;;;;;;;;;;;;;;;;5053822;28;1145;-69
2023/05/13 08:33:33;;;;;;;;;;;;;;;;;;5053735;28;1156;-69
2023/05/13 08:35:59;;;;;;;;;;;;;;;;;;5085829;28;1337;-69
2023/05/13 08:38:24;;;;;;;;;;;;;;;;;;5055102;28;2021;-69
2023/05/13 08:40:49;;;;;;;;;;;;;;;;;;5086966;28;1305;-69
2023/05/13 08:43:15;;;;;;;;;;;;;;;;;;5070603;28;1149;-69
2023/05/13 08:45:44;;;;;;;;;;;;;;;;;;5086929;28;1304;-68
2023/05/13 08:48:10;;;;;;;;;;;;;;;;;;5054944;28;951;-69
2023/05/13 08:50:35;;;;;;;;;;;;;;;;;;5054951;28;809;-68
2023/05/13 08:53:01;;;;;;;;;;;;;;;;;;5054636;28;1037;-68
2023/05/13 08:55:26;;;;;;;;;;;;;;;;;;5070525;28;1439;-68
2023/05/13 08:57:52;;;;;;;;;;;;;;;;;;5086750;28;1898;-68
2023/05/13 09:00:17;;;;;;;;;;;;;;;;;;5054736;28;794;-69
2023/05/13 09:02:43;;;;;;;;;;;;;;;;;;5086230;28;1332;-68
2023/05/13 09:05:08;;;;;;;;;;;;;;;;;;5085766;28;1368;-69
2023/05/13 09:07:34;;;;;;;;;;;;;;;;;;5069091;28;1268;-69
2023/05/13 09:10:00;;;;;;;;;;;;;;;;;;5053372;28;912;-69
2023/05/13 09:12:41;;;;;;;;;;;;;;;;;;5069174;28;1453;-69
2023/05/13 09:15:10;;;;;;;;;;;;;;;;;;5053478;28;840;-69
2023/05/13 09:17:41;;;;;;;;;;;;;;;;;;5068464;28;1897;-69
2023/05/13 09:20:16;;;;;;;;;;;;;;;;;;5068687;28;1253;-68
2023/05/13 09:22:46;;;;;;;;;;;;;;;;;;5053152;28;1251;-68
2023/05/13 09:25:12;;;;;;;;;;;;;;;;;;5054081;28;770;-69
2023/05/13 09:27:39;;;;;;;;;;;;;;;;;;5085280;28;1433;-70
2023/05/13 09:30:05;;;;;;;;;;;;;;;;;;5052825;28;825;-70
2023/05/13 09:32:30;;;;;;;;;;;;;;;;;;5068237;28;1378;-70
2023/05/13 09:34:55;;;;;;;;;;;;;;;;;;5052792;28;915;-69
2023/05/13 09:37:22;;;;;;;;;;;;;;;;;;5052882;28;1988;-69
2023/05/13 09:39:50;;;;;;;;;;;;;;;;;;5084567;28;1367;-68
2023/05/13 09:42:16;;;;;;;;;;;;;;;;;;5053315;28;880;-68
2023/05/13 09:44:42;;;;;;;;;;;;;;;;;;5085089;28;1205;-68
2023/05/13 09:47:14;;;;;;;;;;;;;;;;;;5051936;28;1145;-69
2023/05/13 09:49:40;;;;;;;;;;;;;;;;;;5046273;28;1133;-69
2023/05/13 09:52:10;;;;;;;;;;;;;;;;;;5031851;28;1106;-69
2023/05/13 09:54:35;;;;;;;;;;;;;;;;;;5064750;28;1356;-69
2023/05/13 09:57:01;;;;;;;;;;;;;;;;;;5032204;28;900;-69
2023/05/13 09:59:26;;;;;;;;;;;;;;;;;;5032933;28;1894;-69
2023/05/13 10:01:52;;;;;;;;;;;;;;;;;;5047592;28;1189;-69
2023/05/13 10:04:18;;;;;;;;;;;;;;;;;;5064463;28;1349;-68
2023/05/13 10:06:44;;;;;;;;;;;;;;;;;;5032378;28;911;-69
2023/05/13 10:09:10;;;;;;;;;;;;;;;;;;5048287;28;1186;-68
2023/05/13 10:11:35;;;;;;;;;;;;;;;;;;5032903;28;892;-69
2023/05/13 10:14:02;;;;;;;;;;;;;;;;;;5048106;28;1174;-69
2023/05/13 10:16:30;;;;;;;;;;;;;;;;;;5065006;28;1309;-68
2023/05/13 10:18:57;;;;;;;;;;;;;;;;;;5064641;28;1975;-69
2023/05/13 10:21:22;;;;;;;;;;;;;;;;;;5064322;28;1336;-68
2023/05/13 10:23:50;;;;;;;;;;;;;;;;;;5048877;28;963;-68
2023/05/13 10:26:16;;;;;;;;;;;;;;;;;;5066540;28;1245;-69
2023/05/13 10:28:42;;;;;;;;;;;;;;;;;;5065941;28;1373;-70
2023/05/13 10:31:07;;;;;;;;;;;;;;;;;;5064953;28;1194;-69
2023/05/13 10:33:33;;;;;;;;;;;;;;;;;;5066823;28;1381;-69
2023/05/13 10:36:24;;;;;;;;;;;;;;;;;;5032471;28;932;-69
2023/05/13 10:39:08;;;;;;;;;;;;;;;;;;5034331;28;1902;-68
2023/05/13 10:41:53;;;;;;;;;;;;;;;;;;5067157;28;1202;-70
2023/05/13 10:44:18;;;;;;;;;;;;;;;;;;5066858;28;1237;-69
2023/05/13 10:46:47;;;;;;;;;;;;;;;;;;5035289;28;908;-70
2023/05/13 10:49:21;;;;;;;;;;;;;;;;;;5050176;28;1328;-69
2023/05/13 10:51:47;;;;;;;;;;;;;;;;;;5033666;28;864;-69
2023/05/13 10:54:20;;;;;;;;;;;;;;;;;;5066784;28;1292;-69
2023/05/13 10:56:46;;;;;;;;;;;;;;;;;;5033866;28;829;-68
2023/05/13 10:59:11;;;;;;;;;;;;;;;;;;5034013;28;1899;-70
2023/05/13 11:01:41;;;;;;;;;;;;;;;;;;5032370;28;813;-69
2023/05/13 11:04:10;;;;;;;;;;;;;;;;;;5031670;28;834;-69
2023/05/13 11:06:38;;;;;;;;;;;;;;;;;;5032387;28;833;-69
2023/05/13 11:09:07;;;;;;;;;;;;;;;;;;5031744;28;900;-69
2023/05/13 11:11:34;;;;;;;;;;;;;;;;;;5063592;28;1309;-70
2023/05/13 11:13:59;;;;;;;;;;;;;;;;;;5031297;28;884;-69
2023/05/13 11:16:24;;;;;;;;;;;;;;;;;;5064271;28;1388;-70
2023/05/13 11:18:51;;;;;;;;;;;;;;;;;;5046643;28;1894;-69
2023/05/13 11:21:16;;;;;;;;;;;;;;;;;;5046162;28;1419;-68
2023/05/13 11:24:00;;;;;;;;;;;;;;;;;;5029796;28;1165;-69
2023/05/13 11:26:39;;;;;;;;;;;;;;;;;;5032416;28;861;-68
2023/05/13 11:29:05;;;;;;;;;;;;;;;;;;5031902;28;794;-69
2023/05/13 11:31:51;;;;;;;;;;;;;;;;;;5047625;28;1225;-69
2023/05/13 11:34:17;;;;;;;;;;;;;;;;;;5067154;28;1218;-70
2023/05/13 11:36:44;;;;;;;;;;;;;;;;;;5038392;28;932;-67
2023/05/13 11:39:20;;;;;;;;;;;;;;;;;;5037213;28;1906;-70
2023/05/13 11:41:47;;;;;;;;;;;;;;;;;;5065899;28;1325;-70
2023/05/13 11:44:13;;;;;;;;;;;;;;;;;;5036496;28;846;-70
2023/05/13 11:46:47;;;;;;;;;;;;;;;;;;5050470;28;1459;-70
2023/05/13 11:49:27;;;;;;;;;;;;;;;;;;5034645;28;1311;-71
2023/05/13 11:51:53;;;;;;;;;;;;;;;;;;5034169;28;1157;-66
2023/05/13 11:54:18;;;;;;;;;;;;;;;;;;5034965;28;920;-65
2023/05/13 11:56:44;;;;;;;;;;;;;;;;;;5050537;28;983;-66
2023/05/13 11:59:16;;;;;;;;;;;;;;;;;;5049699;28;1898;-66
2023/05/13 12:01:41;;;;;;;;;;;;;;;;;;5067104;28;1369;-66
2023/05/13 12:04:07;;;;;;;;;;;;;;;;;;5034414;28;860;-67
2023/05/13 12:06:33;;;;;;;;;;;;;;;;;;5035157;28;896;-66
2023/05/13 12:09:05;;;;;;;;;;;;;;;;;;5034206;28;908;-66
2023/05/13 12:11:30;;;;;;;;;;;;;;;;;;5050029;28;1079;-66
2023/05/13 12:13:58;;;;;;;;;;;;;;;;;;5066176;28;1401;-66
2023/05/13 12:16:23;;;;;;;;;;;;;;;;;;5067008;28;1210;-66
2023/05/13 12:18:58;;;;;;;;;;;;;;;;;;5034467;28;1941;-70
2023/05/13 12:21:23;;;;;;;;;;;;;;;;;;5067244;28;1289;-69
2023/05/13 12:23:49;;;;;;;;;;;;;;;;;;5049658;28;1143;-70
2023/05/13 12:26:14;;;;;;;;;;;;;;;;;;5067042;28;1314;-70
2023/05/13 12:28:39;;;;;;;;;;;;;;;;;;5066708;28;1202;-70
2023/05/13 12:31:05;;;;;;;;;;;;;;;;;;5034100;28;1189;-69
2023/05/13 12:33:30;;;;;;;;;;;;;;;;;;5068870;28;1144;-70
2023/05/13 12:36:13;;;;;;;;;;;;;;;;;;5053433;28;1013;-69
2023/05/13 12:38:39;;;;;;;;;;;;;;;;;;5054205;28;1970;-69
2023/05/13 12:41:13;;;;;;;;;;;;;;;;;;5053892;28;947;-69
2023/05/13 12:43:39;;;;;;;;;;;;;;;;;;5054230;28;932;-70
2023/05/13 12:46:05;;;;;;;;;;;;;;;;;;5069410;28;1241;-69
2023/05/13 12:48:31;;;;;;;;;;;;;;;;;;5070049;28;924;-70
2023/05/13 12:50:57;;;;;;;;;;;;;;;;;;5053574;28;920;-70
2023/05/13 12:53:22;;;;;;;;;;;;;;;;;;5053582;28;828;-69
2023/05/13 12:55:47;;;;;;;;;;;;;;;;;;5053908;28;908;-69
2023/05/13 12:58:13;;;;;;;;;;;;;;;;;;5069077;28;1902;-69
2023/05/13 13:00:38;;;;;;;;;;;;;;;;;;5069645;28;1212;-69
2023/05/13 13:03:03;;;;;;;;;;;;;;;;;;5086366;28;1348;-69
2023/05/13 13:05:29;;;;;;;;;;;;;;;;;;5054295;28;837;-69
2023/05/13 13:07:54;;;;;;;;;;;;;;;;;;5053698;28;947;-70
2023/05/13 13:10:19;;;;;;;;;;;;;;;;;;5053915;28;1021;-70
2023/05/13 13:12:45;;;;;;;;;;;;;;;;;;5068031;28;1166;-69
2023/05/13 13:15:11;;;;;;;;;;;;;;;;;;5086402;28;1151;-69
2023/05/13 13:17:36;;;;;;;;;;;;;;;;;;5053596;28;1906;-69
2023/05/13 13:20:03;;;;;;;;;;;;;;;;;;5052781;28;977;-69
2023/05/13 13:22:29;;;;;;;;;;;;;;;;;;5053460;28;1246;-69
2023/05/13 13:24:54;;;;;;;;;;;;;;;;;;5068245;28;841;-68
2023/05/13 13:27:19;;;;;;;;;;;;;;;;;;5053420;28;817;-69
2023/05/13 13:29:45;;;;;;;;;;;;;;;;;;5085839;28;1336;-69
2023/05/13 13:32:12;;;;;;;;;;;;;;;;;;5052972;28;868;-69
2023/05/13 13:34:37;;;;;;;;;;;;;;;;;;5053058;28;845;-70
2023/05/13 13:37:02;;;;;;;;;;;;;;;;;;5052096;28;958;-69
2023/05/13 13:39:28;;;;;;;;;;;;;;;;;;5068368;28;1922;-70
2023/05/13 13:41:53;;;;;;;;;;;;;;;;;;5068231;28;872;-70
2023/05/13 13:44:18;;;;;;;;;;;;;;;;;;5053224;28;813;-70
2023/05/13 13:46:44;;;;;;;;;;;;;;;;;;5052756;28;1196;-70
2023/05/13 13:49:09;;;;;;;;;;;;;;;;;;5042444;28;1148;-70
2023/05/13 13:51:34;;;;;;;;;;;;;;;;;;5058705;28;1336;-70
2023/05/13 13:54:06;;;;;;;;;;;;;;;;;;5032842;28;959;-70
2023/05/13 13:56:32;;;;;;;;;;;;;;;;;;5048230;28;1256;-70
2023/05/13 13:58:57;;;;;;;;;;;;;;;;;;5032874;28;1977;-70
2023/05/13 14:01:22;;;;;;;;;;;;;;;;;;5033535;28;888;-70
2023/05/13 14:03:51;;;;;;;;;;;;;;;;;;5048659;28;1193;-70
2023/05/13 14:06:16;;;;;;;;;;;;;;;;;;5064262;28;1241;-70
2023/05/13 14:08:42;;;;;;;;;;;;;;;;;;5033325;28;899;-70
2023/05/13 14:11:07;;;;;;;;;;;;;;;;;;5032706;28;1003;-70
2023/05/13 14:13:32;;;;;;;;;;;;;;;;;;5032973;28;1207;-70
2023/05/13 14:15:58;;;;;;;;;;;;;;;;;;5064586;28;1226;-70
2023/05/13 14:18:23;;;;;;;;;;;;;;;;;;5047759;28;1898;-70
2023/05/13 14:20:49;;;;;;;;;;;;;;;;;;5064066;28;1301;-70
2023/05/13 14:23:14;;;;;;;;;;;;;;;;;;5047238;28;1120;-70
2023/05/13 14:25:40;;;;;;;;;;;;;;;;;;5031104;28;1156;-70
2023/05/13 14:28:05;;;;;;;;;;;;;;;;;;5031901;28;888;-70
2023/05/13 14:30:30;;;;;;;;;;;;;;;;;;5064492;28;1340;-70
2023/05/13 14:32:55;;;;;;;;;;;;;;;;;;5047269;28;1190;-70
2023/05/13 14:35:21;;;;;;;;;;;;;;;;;;5032300;28;833;-70
2023/05/13 14:37:46;;;;;;;;;;;;;;;;;;5047871;28;1910;-70
2023/05/13 14:40:11;;;;;;;;;;;;;;;;;;5047567;28;1269;-70
2023/05/13 14:42:37;;;;;;;;;;;;;;;;;;5048095;28;1123;-68
2023/05/13 14:45:02;;;;;;;;;;;;;;;;;;5047156;28;1273;-70
2023/05/13 14:47:27;;;;;;;;;;;;;;;;;;5048090;28;1308;-70
2023/05/13 14:49:52;;;;;;;;;;;;;;;;;;5032745;28;900;-70
2023/05/13 14:52:18;;;;;;;;;;;;;;;;;;5047685;28;1204;-70
2023/05/13 14:54:43;;;;;;;;;;;;;;;;;;5048412;28;1308;-70
2023/05/13 14:57:08;;;;;;;;;;;;;;;;;;5064529;28;1249;-70
2023/05/13 14:59:34;;;;;;;;;;;;;;;;;;5047255;28;1901;-69
2023/05/13 15:02:00;;;;;;;;;;;;;;;;;;5047218;28;905;-70
2023/05/13 15:04:25;;;;;;;;;;;;;;;;;;5063887;28;1392;-70
2023/05/13 15:06:51;;;;;;;;;;;;;;;;;;5031692;28;864;-70
2023/05/13 15:09:17;;;;;;;;;;;;;;;;;;5030869;28;1153;-70
2023/05/13 15:11:42;;;;;;;;;;;;;;;;;;5062353;28;1243;-70
2023/05/13 15:14:08;;;;;;;;;;;;;;;;;;5046517;28;1007;-71
2023/05/13 15:16:33;;;;;;;;;;;;;;;;;;5033716;28;971;-70
2023/05/13 15:18:59;;;;;;;;;;;;;;;;;;5035740;28;1955;-70
2023/05/13 15:21:24;;;;;;;;;;;;;;;;;;5035678;28;1086;-69
2023/05/13 15:23:49;;;;;;;;;;;;;;;;;;5035906;28;959;-70
2023/05/13 15:26:15;;;;;;;;;;;;;;;;;;5034437;28;1169;-71
2023/05/13 15:28:40;;;;;;;;;;;;;;;;;;5061736;28;1172;-69
2023/05/13 15:31:05;;;;;;;;;;;;;;;;;;5042225;28;1199;-71
2023/05/13 15:33:31;;;;;;;;;;;;;;;;;;5055905;28;928;-70
2023/05/13 15:35:57;;;;;;;;;;;;;;;;;;5055405;28;943;-70
2023/05/13 15:38:22;;;;;;;;;;;;;;;;;;5054218;28;1909;-70
2023/05/13 15:40:47;;;;;;;;;;;;;;;;;;5053379;28;1391;-71
2023/05/13 15:43:13;;;;;;;;;;;;;;;;;;5064634;28;1357;-70
2023/05/13 15:45:41;;;;;;;;;;;;;;;;;;5069614;28;1271;-69
2023/05/13 15:48:06;;;;;;;;;;;;;;;;;;5056074;28;1014;-70
2023/05/13 15:50:32;;;;;;;;;;;;;;;;;;5087833;28;1146;-70
2023/05/13 15:52:57;;;;;;;;;;;;;;;;;;5088003;28;1347;-70
2023/05/13 15:55:23;;;;;;;;;;;;;;;;;;5055279;28;990;-66
2023/05/13 15:57:48;;;;;;;;;;;;;;;;;;5055661;28;1953;-66
2023/05/13 16:00:14;;;;;;;;;;;;;;;;;;5070410;28;845;-65
2023/05/13 16:02:40;;;;;;;;;;;;;;;;;;5070676;28;1050;-64
2023/05/13 16:05:06;;;;;;;;;;;;;;;;;;5055044;28;1104;-64
2023/05/13 16:07:31;;;;;;;;;;;;;;;;;;5070386;28;1393;-64
2023/05/13 16:09:56;;;;;;;;;;;;;;;;;;5087153;28;1158;-64
2023/05/13 16:12:21;;;;;;;;;;;;;;;;;;5054783;28;1002;-64
2023/05/13 16:14:47;;;;;;;;;;;;;;;;;;5070377;28;1308;-64
2023/05/13 16:17:12;;;;;;;;;;;;;;;;;;5054908;28;999;-64
2023/05/13 16:19:37;;;;;;;;;;;;;;;;;;5054382;28;1905;-64
2023/05/13 16:22:21;;;;;;;;;;;;;;;;;;5054018;28;1326;-64
2023/05/13 16:24:46;;;;;;;;;;;;;;;;;;5086727;28;1087;-68
2023/05/13 16:27:12;;;;;;;;;;;;;;;;;;5052688;28;1159;-69
2023/05/13 16:29:38;;;;;;;;;;;;;;;;;;5054411;28;908;-64
2023/05/13 16:32:03;;;;;;;;;;;;;;;;;;5054039;28;911;-64
2023/05/13 16:34:28;;;;;;;;;;;;;;;;;;5069425;28;920;-64
2023/05/13 16:36:54;;;;;;;;;;;;;;;;;;5068967;28;1181;-64
2023/05/13 16:39:19;;;;;;;;;;;;;;;;;;5069132;28;1973;-64
2023/05/13 16:41:45;;;;;;;;;;;;;;;;;;5054367;28;888;-64
2023/05/13 16:44:10;;;;;;;;;;;;;;;;;;5086169;28;1130;-64
2023/05/13 16:46:36;;;;;;;;;;;;;;;;;;5053781;28;820;-64
2023/05/13 16:49:01;;;;;;;;;;;;;;;;;;5069159;28;947;-65
2023/05/13 16:51:26;;;;;;;;;;;;;;;;;;5086244;28;1258;-65
2023/05/13 16:53:51;;;;;;;;;;;;;;;;;;5086023;28;1363;-65
2023/05/13 16:56:17;;;;;;;;;;;;;;;;;;5053466;28;964;-63
2023/05/13 16:58:42;;;;;;;;;;;;;;;;;;5069715;28;1901;-65
2023/05/13 17:01:07;;;;;;;;;;;;;;;;;;5069267;28;885;-65
2023/05/13 17:03:33;;;;;;;;;;;;;;;;;;5069235;28;841;-65